sensor_id;sensor_type;location;lat;lon;timestamp;temperature;humidity
12053;DHT22;6087;48.982;12.064;2023-02-15T00:01:06;2.20;95.90
12053;DHT22;6087;48.982;12.064;2023-02-15T00:03:33;2.20;95.40
12053;DHT22;6087;48.982;12.064;2023-02-15T00:06:02;2.20;95.60
12053;DHT22;6087;48.982;12.064;2023-02-15T00:08:29;2.20;96.70
12053;DHT22;6087;48.982;12.064;2023-02-15T00:11:04;2.20;96.20
12053;DHT22;6087;48.982;12.064;2023-02-15T00:13:32;2.20;96.60
12053;DHT22;6087;48.982;12.064;2023-02-15T00:16:02;2.20;96.90
12053;DHT22;6087;48.982;12.064;2023-02-15T00:18:29;2.20;96.40
12053;DHT22;6087;48.982;12.064;2023-02-15T00:20:57;2.20;96.80
12053;DHT22;6087;48.982;12.064;2023-02-15T00:23:26;2.20;96.60
12053;DHT22;6087;48.982;12.064;2023-02-15T00:26:03;2.20;96.20
12053;DHT22;6087;48.982;12.064;2023-02-15T00:28:30;2.20;96.30
12053;DHT22;6087;48.982;12.064;2023-02-15T00:31:03;2.20;95.60
12053;DHT22;6087;48.982;12.064;2023-02-15T00:33:30;2.20;95.50
12053;DHT22;6087;48.982;12.064;2023-02-15T00:35:57;2.20;95.40
12053;DHT22;6087;48.982;12.064;2023-02-15T00:38:26;2.20;95.70
12053;DHT22;6087;48.982;12.064;2023-02-15T00:40:53;2.10;96.30
12053;DHT22;6087;48.982;12.064;2023-02-15T00:43:20;2.20;96.30
12053;DHT22;6087;48.982;12.064;2023-02-15T00:45:48;2.10;96.80
12053;DHT22;6087;48.982;12.064;2023-02-15T00:48:15;2.10;96.80
12053;DHT22;6087;48.982;12.064;2023-02-15T00:50:43;2.10;96.80
12053;DHT22;6087;48.982;12.064;2023-02-15T00:53:11;2.10;96.60
12053;DHT22;6087;48.982;12.064;2023-02-15T00:55:39;2.10;96.30
12053;DHT22;6087;48.982;12.064;2023-02-15T00:58:07;2.10;95.50
12053;DHT22;6087;48.982;12.064;2023-02-15T01:00:34;2.10;95.20
12053;DHT22;6087;48.982;12.064;2023-02-15T01:03:01;2.10;95.60
12053;DHT22;6087;48.982;12.064;2023-02-15T01:05:29;2.10;95.10
12053;DHT22;6087;48.982;12.064;2023-02-15T01:07:56;2.00;95.40
12053;DHT22;6087;48.982;12.064;2023-02-15T01:10:24;2.00;95.10
12053;DHT22;6087;48.982;12.064;2023-02-15T01:12:52;2.00;95.90
12053;DHT22;6087;48.982;12.064;2023-02-15T01:15:20;2.10;95.20
12053;DHT22;6087;48.982;12.064;2023-02-15T01:17:47;2.10;95.90
12053;DHT22;6087;48.982;12.064;2023-02-15T01:20:18;2.10;95.80
12053;DHT22;6087;48.982;12.064;2023-02-15T01:22:46;2.00;95.80
12053;DHT22;6087;48.982;12.064;2023-02-15T01:25:15;2.00;96.30
12053;DHT22;6087;48.982;12.064;2023-02-15T01:27:42;2.10;96.00
12053;DHT22;6087;48.982;12.064;2023-02-15T01:30:11;2.10;96.00
12053;DHT22;6087;48.982;12.064;2023-02-15T01:32:39;2.10;95.90
12053;DHT22;6087;48.982;12.064;2023-02-15T01:35:06;2.10;95.70
12053;DHT22;6087;48.982;12.064;2023-02-15T01:37:34;2.00;95.30
12053;DHT22;6087;48.982;12.064;2023-02-15T01:40:02;2.00;95.50
12053;DHT22;6087;48.982;12.064;2023-02-15T01:42:29;2.00;95.30
12053;DHT22;6087;48.982;12.064;2023-02-15T01:44:58;2.00;95.80
12053;DHT22;6087;48.982;12.064;2023-02-15T01:47:32;2.00;96.30
12053;DHT22;6087;48.982;12.064;2023-02-15T01:50:05;2.00;96.30
12053;DHT22;6087;48.982;12.064;2023-02-15T01:52:35;2.00;95.90
12053;DHT22;6087;48.982;12.064;2023-02-15T01:55:03;2.00;95.90
12053;DHT22;6087;48.982;12.064;2023-02-15T01:57:31;1.90;96.20
12053;DHT22;6087;48.982;12.064;2023-02-15T02:00:01;1.90;96.60
12053;DHT22;6087;48.982;12.064;2023-02-15T02:02:31;2.00;96.50
12053;DHT22;6087;48.982;12.064;2023-02-15T02:05:00;2.00;96.20
12053;DHT22;6087;48.982;12.064;2023-02-15T02:07:34;2.00;96.00
12053;DHT22;6087;48.982;12.064;2023-02-15T02:10:03;1.90;96.40
12053;DHT22;6087;48.982;12.064;2023-02-15T02:12:31;1.90;96.50
12053;DHT22;6087;48.982;12.064;2023-02-15T02:14:58;1.90;97.00
12053;DHT22;6087;48.982;12.064;2023-02-15T02:17:34;1.90;97.00
12053;DHT22;6087;48.982;12.064;2023-02-15T02:20:17;1.90;97.50
12053;DHT22;6087;48.982;12.064;2023-02-15T02:23:17;1.90;97.40
12053;DHT22;6087;48.982;12.064;2023-02-15T02:26:20;1.90;96.80
12053;DHT22;6087;48.982;12.064;2023-02-15T02:35:06;1.90;96.30
12053;DHT22;6087;48.982;12.064;2023-02-15T02:37:43;1.90;96.10
12053;DHT22;6087;48.982;12.064;2023-02-15T02:40:18;1.80;95.80
12053;DHT22;6087;48.982;12.064;2023-02-15T02:42:49;1.80;96.60
12053;DHT22;6087;48.982;12.064;2023-02-15T02:45:24;1.80;96.60
12053;DHT22;6087;48.982;12.064;2023-02-15T02:47:54;1.80;96.60
12053;DHT22;6087;48.982;12.064;2023-02-15T02:50:28;1.80;97.00
12053;DHT22;6087;48.982;12.064;2023-02-15T02:52:57;1.80;96.90
12053;DHT22;6087;48.982;12.064;2023-02-15T02:55:27;1.80;97.30
12053;DHT22;6087;48.982;12.064;2023-02-15T02:58:00;1.90;96.80
12053;DHT22;6087;48.982;12.064;2023-02-15T03:00:32;1.80;96.40
12053;DHT22;6087;48.982;12.064;2023-02-15T03:03:05;1.80;95.70
12053;DHT22;6087;48.982;12.064;2023-02-15T03:05:37;1.80;94.60
12053;DHT22;6087;48.982;12.064;2023-02-15T03:08:07;1.70;95.50
12053;DHT22;6087;48.982;12.064;2023-02-15T03:10:36;1.70;95.90
12053;DHT22;6087;48.982;12.064;2023-02-15T03:13:03;1.70;96.20
12053;DHT22;6087;48.982;12.064;2023-02-15T03:15:33;1.70;95.90
12053;DHT22;6087;48.982;12.064;2023-02-15T03:18:17;1.70;96.10
12053;DHT22;6087;48.982;12.064;2023-02-15T03:20:46;1.70;96.60
12053;DHT22;6087;48.982;12.064;2023-02-15T03:23:17;1.70;96.60
12053;DHT22;6087;48.982;12.064;2023-02-15T03:25:50;1.70;96.60
12053;DHT22;6087;48.982;12.064;2023-02-15T03:28:27;1.70;96.80
12053;DHT22;6087;48.982;12.064;2023-02-15T03:30:57;1.80;96.50
12053;DHT22;6087;48.982;12.064;2023-02-15T03:33:26;1.70;95.90
12053;DHT22;6087;48.982;12.064;2023-02-15T03:36:01;1.70;96.40
12053;DHT22;6087;48.982;12.064;2023-02-15T03:38:33;1.70;97.20
12053;DHT22;6087;48.982;12.064;2023-02-15T03:41:02;1.70;96.00
12053;DHT22;6087;48.982;12.064;2023-02-15T03:43:44;1.70;96.80
12053;DHT22;6087;48.982;12.064;2023-02-15T03:46:15;1.70;96.50
12053;DHT22;6087;48.982;12.064;2023-02-15T03:48:47;1.70;96.20
12053;DHT22;6087;48.982;12.064;2023-02-15T03:51:20;1.70;96.50
12053;DHT22;6087;48.982;12.064;2023-02-15T03:54:06;1.70;96.40
12053;DHT22;6087;48.982;12.064;2023-02-15T03:56:35;1.70;96.20
12053;DHT22;6087;48.982;12.064;2023-02-15T03:59:03;1.70;95.80
12053;DHT22;6087;48.982;12.064;2023-02-15T04:01:55;1.70;95.70
12053;DHT22;6087;48.982;12.064;2023-02-15T04:04:37;1.70;95.90
12053;DHT22;6087;48.982;12.064;2023-02-15T04:07:07;1.60;95.10
12053;DHT22;6087;48.982;12.064;2023-02-15T04:09:35;1.60;95.40
12053;DHT22;6087;48.982;12.064;2023-02-15T04:12:20;1.60;95.30
12053;DHT22;6087;48.982;12.064;2023-02-15T04:14:47;1.60;94.00
12053;DHT22;6087;48.982;12.064;2023-02-15T04:17:31;1.50;95.50
12053;DHT22;6087;48.982;12.064;2023-02-15T04:19:58;1.60;94.40
12053;DHT22;6087;48.982;12.064;2023-02-15T04:22:44;1.50;95.40
12053;DHT22;6087;48.982;12.064;2023-02-15T04:25:29;1.50;94.90
12053;DHT22;6087;48.982;12.064;2023-02-15T04:27:56;1.50;95.20
12053;DHT22;6087;48.982;12.064;2023-02-15T04:30:25;1.50;95.10
12053;DHT22;6087;48.982;12.064;2023-02-15T04:32:53;1.50;95.10
12053;DHT22;6087;48.982;12.064;2023-02-15T04:35:20;1.40;96.50
12053;DHT22;6087;48.982;12.064;2023-02-15T04:37:49;1.40;96.20
12053;DHT22;6087;48.982;12.064;2023-02-15T04:40:17;1.40;96.00
12053;DHT22;6087;48.982;12.064;2023-02-15T04:42:44;1.40;96.00
12053;DHT22;6087;48.982;12.064;2023-02-15T04:45:13;1.40;96.70
12053;DHT22;6087;48.982;12.064;2023-02-15T04:47:41;1.30;96.30
12053;DHT22;6087;48.982;12.064;2023-02-15T04:50:08;1.30;99.40
12053;DHT22;6087;48.982;12.064;2023-02-15T04:52:35;1.30;98.30
12053;DHT22;6087;48.982;12.064;2023-02-15T04:55:04;1.30;98.90
12053;DHT22;6087;48.982;12.064;2023-02-15T04:57:32;1.20;99.60
12053;DHT22;6087;48.982;12.064;2023-02-15T04:59:59;1.30;99.30
12053;DHT22;6087;48.982;12.064;2023-02-15T05:02:26;1.30;98.90
12053;DHT22;6087;48.982;12.064;2023-02-15T05:04:52;1.40;98.20
12053;DHT22;6087;48.982;12.064;2023-02-15T05:07:19;1.20;96.60
12053;DHT22;6087;48.982;12.064;2023-02-15T05:09:47;1.20;98.90
12053;DHT22;6087;48.982;12.064;2023-02-15T05:12:16;1.20;98.10
12053;DHT22;6087;48.982;12.064;2023-02-15T05:14:42;1.20;99.90
12053;DHT22;6087;48.982;12.064;2023-02-15T05:17:09;1.10;97.60
12053;DHT22;6087;48.982;12.064;2023-02-15T05:19:36;1.00;99.90
12053;DHT22;6087;48.982;12.064;2023-02-15T05:22:03;1.00;99.90
12053;DHT22;6087;48.982;12.064;2023-02-15T05:24:30;1.00;99.90
12053;DHT22;6087;48.982;12.064;2023-02-15T05:27:25;1.00;99.90
12053;DHT22;6087;48.982;12.064;2023-02-15T05:30:10;1.00;99.90
12053;DHT22;6087;48.982;12.064;2023-02-15T05:32:38;1.00;99.90
12053;DHT22;6087;48.982;12.064;2023-02-15T05:35:05;1.00;99.90
12053;DHT22;6087;48.982;12.064;2023-02-15T05:37:33;1.10;99.90
12053;DHT22;6087;48.982;12.064;2023-02-15T05:40:00;1.10;99.90
12053;DHT22;6087;48.982;12.064;2023-02-15T05:42:28;1.10;99.90
12053;DHT22;6087;48.982;12.064;2023-02-15T05:44:55;1.20;99.90
12053;DHT22;6087;48.982;12.064;2023-02-15T05:47:22;1.30;99.90
12053;DHT22;6087;48.982;12.064;2023-02-15T05:49:49;1.30;99.90
12053;DHT22;6087;48.982;12.064;2023-02-15T05:52:16;1.30;99.40
12053;DHT22;6087;48.982;12.064;2023-02-15T05:54:43;1.40;98.80
12053;DHT22;6087;48.982;12.064;2023-02-15T05:57:09;1.40;98.30
12053;DHT22;6087;48.982;12.064;2023-02-15T05:59:38;1.40;97.70
12053;DHT22;6087;48.982;12.064;2023-02-15T06:02:05;1.40;97.50
12053;DHT22;6087;48.982;12.064;2023-02-15T06:04:32;1.40;97.20
12053;DHT22;6087;48.982;12.064;2023-02-15T06:06:59;1.40;97.20
12053;DHT22;6087;48.982;12.064;2023-02-15T06:09:26;1.40;97.00
12053;DHT22;6087;48.982;12.064;2023-02-15T06:11:53;1.40;97.30
12053;DHT22;6087;48.982;12.064;2023-02-15T06:14:20;1.50;96.70
12053;DHT22;6087;48.982;12.064;2023-02-15T06:16:48;1.50;96.10
12053;DHT22;6087;48.982;12.064;2023-02-15T06:19:15;1.40;96.60
12053;DHT22;6087;48.982;12.064;2023-02-15T06:21:43;1.30;96.70
12053;DHT22;6087;48.982;12.064;2023-02-15T06:24:10;1.30;98.00
12053;DHT22;6087;48.982;12.064;2023-02-15T06:26:37;1.20;98.10
12053;DHT22;6087;48.982;12.064;2023-02-15T06:29:04;1.30;97.60
12053;DHT22;6087;48.982;12.064;2023-02-15T06:31:31;1.30;96.70
12053;DHT22;6087;48.982;12.064;2023-02-15T06:33:59;1.20;95.50
12053;DHT22;6087;48.982;12.064;2023-02-15T06:36:27;1.20;98.20
12053;DHT22;6087;48.982;12.064;2023-02-15T06:38:54;1.20;98.50
12053;DHT22;6087;48.982;12.064;2023-02-15T06:41:21;1.20;97.60
12053;DHT22;6087;48.982;12.064;2023-02-15T06:43:48;1.30;97.00
12053;DHT22;6087;48.982;12.064;2023-02-15T06:46:15;1.30;97.00
12053;DHT22;6087;48.982;12.064;2023-02-15T06:48:42;1.40;96.70
12053;DHT22;6087;48.982;12.064;2023-02-15T06:51:11;1.30;96.30
12053;DHT22;6087;48.982;12.064;2023-02-15T06:53:38;1.40;96.00
12053;DHT22;6087;48.982;12.064;2023-02-15T06:56:07;1.30;96.00
12053;DHT22;6087;48.982;12.064;2023-02-15T06:58:34;1.30;96.30
12053;DHT22;6087;48.982;12.064;2023-02-15T07:01:02;1.30;95.10
12053;DHT22;6087;48.982;12.064;2023-02-15T07:03:29;1.10;97.40
12053;DHT22;6087;48.982;12.064;2023-02-15T07:05:57;1.20;97.80
12053;DHT22;6087;48.982;12.064;2023-02-15T07:08:26;1.20;96.00
12053;DHT22;6087;48.982;12.064;2023-02-15T07:10:55;1.20;98.10
12053;DHT22;6087;48.982;12.064;2023-02-15T07:13:43;1.20;97.40
12053;DHT22;6087;48.982;12.064;2023-02-15T07:16:09;1.20;96.10
12053;DHT22;6087;48.982;12.064;2023-02-15T07:18:36;1.20;96.00
12053;DHT22;6087;48.982;12.064;2023-02-15T07:21:03;1.30;95.40
12053;DHT22;6087;48.982;12.064;2023-02-15T07:23:34;1.30;95.20
12053;DHT22;6087;48.982;12.064;2023-02-15T07:26:01;1.30;93.60
12053;DHT22;6087;48.982;12.064;2023-02-15T07:28:29;1.30;95.00
12053;DHT22;6087;48.982;12.064;2023-02-15T07:30:56;1.30;94.90
12053;DHT22;6087;48.982;12.064;2023-02-15T07:33:23;1.40;94.80
12053;DHT22;6087;48.982;12.064;2023-02-15T07:35:54;1.40;94.90
12053;DHT22;6087;48.982;12.064;2023-02-15T07:38:23;1.40;95.10
12053;DHT22;6087;48.982;12.064;2023-02-15T07:40:51;1.20;94.40
12053;DHT22;6087;48.982;12.064;2023-02-15T07:43:18;1.20;98.10
12053;DHT22;6087;48.982;12.064;2023-02-15T07:45:46;1.10;98.40
12053;DHT22;6087;48.982;12.064;2023-02-15T07:48:13;1.20;98.50
12053;DHT22;6087;48.982;12.064;2023-02-15T07:50:40;1.30;97.70
12053;DHT22;6087;48.982;12.064;2023-02-15T07:53:06;1.30;97.10
12053;DHT22;6087;48.982;12.064;2023-02-15T07:55:33;1.40;97.00
12053;DHT22;6087;48.982;12.064;2023-02-15T07:58:02;1.40;97.00
12053;DHT22;6087;48.982;12.064;2023-02-15T08:00:29;1.50;96.70
12053;DHT22;6087;48.982;12.064;2023-02-15T08:03:16;1.50;96.00
12053;DHT22;6087;48.982;12.064;2023-02-15T08:05:44;1.50;95.30
12053;DHT22;6087;48.982;12.064;2023-02-15T08:08:12;1.50;96.20
12053;DHT22;6087;48.982;12.064;2023-02-15T08:10:58;1.50;95.30
12053;DHT22;6087;48.982;12.064;2023-02-15T08:13:44;1.50;95.00
12053;DHT22;6087;48.982;12.064;2023-02-15T08:16:20;1.40;94.40
12053;DHT22;6087;48.982;12.064;2023-02-15T08:18:47;1.40;94.30
12053;DHT22;6087;48.982;12.064;2023-02-15T08:21:14;1.40;93.50
12053;DHT22;6087;48.982;12.064;2023-02-15T08:23:40;1.30;93.70
12053;DHT22;6087;48.982;12.064;2023-02-15T08:26:07;1.20;97.90
12053;DHT22;6087;48.982;12.064;2023-02-15T08:28:34;1.30;96.70
12053;DHT22;6087;48.982;12.064;2023-02-15T08:31:06;1.20;96.40
12053;DHT22;6087;48.982;12.064;2023-02-15T08:33:33;1.30;96.10
12053;DHT22;6087;48.982;12.064;2023-02-15T08:36:06;1.10;95.50
12053;DHT22;6087;48.982;12.064;2023-02-15T08:38:33;1.10;96.00
12053;DHT22;6087;48.982;12.064;2023-02-15T08:41:12;0.90;96.50
12053;DHT22;6087;48.982;12.064;2023-02-15T08:43:40;0.80;99.00
12053;DHT22;6087;48.982;12.064;2023-02-15T08:46:10;0.80;98.90
12053;DHT22;6087;48.982;12.064;2023-02-15T08:48:37;0.70;99.90
12053;DHT22;6087;48.982;12.064;2023-02-15T08:51:05;0.60;99.90
12053;DHT22;6087;48.982;12.064;2023-02-15T08:53:33;0.50;99.90
12053;DHT22;6087;48.982;12.064;2023-02-15T08:56:00;0.40;99.90
12053;DHT22;6087;48.982;12.064;2023-02-15T08:58:28;0.50;99.90
12053;DHT22;6087;48.982;12.064;2023-02-15T09:00:56;0.60;99.90
12053;DHT22;6087;48.982;12.064;2023-02-15T09:03:25;0.70;99.90
12053;DHT22;6087;48.982;12.064;2023-02-15T09:05:57;0.80;99.90
12053;DHT22;6087;48.982;12.064;2023-02-15T09:08:25;1.00;99.90
12053;DHT22;6087;48.982;12.064;2023-02-15T09:10:51;1.00;99.90
12053;DHT22;6087;48.982;12.064;2023-02-15T09:13:18;1.00;99.90
12053;DHT22;6087;48.982;12.064;2023-02-15T09:15:46;1.10;99.30
12053;DHT22;6087;48.982;12.064;2023-02-15T09:18:13;1.10;99.90
12053;DHT22;6087;48.982;12.064;2023-02-15T09:20:44;1.10;99.90
12053;DHT22;6087;48.982;12.064;2023-02-15T09:23:11;1.20;99.90
12053;DHT22;6087;48.982;12.064;2023-02-15T09:25:39;1.20;99.60
12053;DHT22;6087;48.982;12.064;2023-02-15T09:28:08;0.80;99.60
12053;DHT22;6087;48.982;12.064;2023-02-15T09:30:35;0.70;99.90
12053;DHT22;6087;48.982;12.064;2023-02-15T09:33:02;0.80;99.90
12053;DHT22;6087;48.982;12.064;2023-02-15T09:35:29;0.80;99.90
12053;DHT22;6087;48.982;12.064;2023-02-15T09:37:57;0.80;99.90
12053;DHT22;6087;48.982;12.064;2023-02-15T09:40:24;0.70;99.90
12053;DHT22;6087;48.982;12.064;2023-02-15T09:46:03;0.40;99.90
12053;DHT22;6087;48.982;12.064;2023-02-15T09:48:42;0.30;99.90
12053;DHT22;6087;48.982;12.064;2023-02-15T09:51:38;0.40;99.90
12053;DHT22;6087;48.982;12.064;2023-02-15T09:54:19;0.30;99.90
12053;DHT22;6087;48.982;12.064;2023-02-15T09:56:49;0.50;99.90
12053;DHT22;6087;48.982;12.064;2023-02-15T09:59:27;0.70;99.90
12053;DHT22;6087;48.982;12.064;2023-02-15T10:02:06;0.80;99.90
12053;DHT22;6087;48.982;12.064;2023-02-15T10:04:51;1.00;99.90
12053;DHT22;6087;48.982;12.064;2023-02-15T10:07:33;1.10;99.90
12053;DHT22;6087;48.982;12.064;2023-02-15T10:10:11;1.10;99.90
12053;DHT22;6087;48.982;12.064;2023-02-15T10:12:49;1.20;99.90
12053;DHT22;6087;48.982;12.064;2023-02-15T10:15:37;1.30;99.90
12053;DHT22;6087;48.982;12.064;2023-02-15T10:18:17;1.30;99.30
12053;DHT22;6087;48.982;12.064;2023-02-15T10:20:54;1.40;98.70
12053;DHT22;6087;48.982;12.064;2023-02-15T10:23:37;1.50;97.80
12053;DHT22;6087;48.982;12.064;2023-02-15T10:26:14;1.50;97.00
12053;DHT22;6087;48.982;12.064;2023-02-15T10:28:46;1.50;96.20
12053;DHT22;6087;48.982;12.064;2023-02-15T10:31:23;1.60;96.30
12053;DHT22;6087;48.982;12.064;2023-02-15T10:34:11;1.60;96.80
12053;DHT22;6087;48.982;12.064;2023-02-15T10:39:39;1.60;97.40
12053;DHT22;6087;48.982;12.064;2023-02-15T10:42:17;1.60;96.70
12053;DHT22;6087;48.982;12.064;2023-02-15T10:44:56;1.70;96.60
12053;DHT22;6087;48.982;12.064;2023-02-15T10:47:48;1.70;96.00
12053;DHT22;6087;48.982;12.064;2023-02-15T10:50:33;1.70;95.80
12053;DHT22;6087;48.982;12.064;2023-02-15T10:53:13;1.70;95.80
12053;DHT22;6087;48.982;12.064;2023-02-15T10:55:52;1.80;95.50
12053;DHT22;6087;48.982;12.064;2023-02-15T10:58:33;1.80;95.60
12053;DHT22;6087;48.982;12.064;2023-02-15T11:01:08;1.80;95.40
12053;DHT22;6087;48.982;12.064;2023-02-15T11:03:56;1.70;96.10
12053;DHT22;6087;48.982;12.064;2023-02-15T11:06:29;1.70;98.30
12053;DHT22;6087;48.982;12.064;2023-02-15T11:09:01;1.70;98.00
12053;DHT22;6087;48.982;12.064;2023-02-15T11:11:31;1.70;97.10
12053;DHT22;6087;48.982;12.064;2023-02-15T11:14:03;1.60;98.40
12053;DHT22;6087;48.982;12.064;2023-02-15T11:16:33;1.70;99.30
12053;DHT22;6087;48.982;12.064;2023-02-15T11:19:06;1.80;98.90
12053;DHT22;6087;48.982;12.064;2023-02-15T11:21:38;1.80;98.10
12053;DHT22;6087;48.982;12.064;2023-02-15T11:24:10;1.90;97.60
12053;DHT22;6087;48.982;12.064;2023-02-15T11:26:41;1.90;97.40
12053;DHT22;6087;48.982;12.064;2023-02-15T11:29:15;2.00;96.70
12053;DHT22;6087;48.982;12.064;2023-02-15T11:31:47;2.00;96.20
12053;DHT22;6087;48.982;12.064;2023-02-15T11:34:20;2.00;96.40
12053;DHT22;6087;48.982;12.064;2023-02-15T11:36:49;2.00;96.70
12053;DHT22;6087;48.982;12.064;2023-02-15T11:39:18;2.00;96.30
12053;DHT22;6087;48.982;12.064;2023-02-15T11:41:50;2.00;96.30
12053;DHT22;6087;48.982;12.064;2023-02-15T11:44:23;2.00;96.20
12053;DHT22;6087;48.982;12.064;2023-02-15T11:46:52;2.00;96.60
12053;DHT22;6087;48.982;12.064;2023-02-15T11:49:29;2.00;99.10
12053;DHT22;6087;48.982;12.064;2023-02-15T11:51:57;1.80;97.30
12053;DHT22;6087;48.982;12.064;2023-02-15T11:54:28;1.80;99.90
12053;DHT22;6087;48.982;12.064;2023-02-15T11:57:03;1.80;99.70
12053;DHT22;6087;48.982;12.064;2023-02-15T11:59:36;1.80;99.90
12053;DHT22;6087;48.982;12.064;2023-02-15T12:02:16;1.90;99.70
12053;DHT22;6087;48.982;12.064;2023-02-15T12:04:47;2.00;98.60
12053;DHT22;6087;48.982;12.064;2023-02-15T12:07:20;2.00;99.50
12053;DHT22;6087;48.982;12.064;2023-02-15T12:09:55;2.00;99.00
12053;DHT22;6087;48.982;12.064;2023-02-15T12:12:25;2.00;98.00
12053;DHT22;6087;48.982;12.064;2023-02-15T12:14:55;1.90;99.70
12053;DHT22;6087;48.982;12.064;2023-02-15T12:17:24;2.00;99.10
12053;DHT22;6087;48.982;12.064;2023-02-15T12:19:54;1.90;99.70
12053;DHT22;6087;48.982;12.064;2023-02-15T12:22:24;1.80;99.90
12053;DHT22;6087;48.982;12.064;2023-02-15T12:24:54;1.90;99.90
12053;DHT22;6087;48.982;12.064;2023-02-15T12:27:24;2.00;99.90
12053;DHT22;6087;48.982;12.064;2023-02-15T12:29:57;2.00;99.90
12053;DHT22;6087;48.982;12.064;2023-02-15T12:32:28;2.00;99.90
12053;DHT22;6087;48.982;12.064;2023-02-15T12:35:01;2.10;99.50
12053;DHT22;6087;48.982;12.064;2023-02-15T12:37:31;2.10;99.80
12053;DHT22;6087;48.982;12.064;2023-02-15T12:40:02;2.20;99.90
12053;DHT22;6087;48.982;12.064;2023-02-15T12:42:44;2.20;98.00
12053;DHT22;6087;48.982;12.064;2023-02-15T12:45:24;2.10;99.90
12053;DHT22;6087;48.982;12.064;2023-02-15T12:48:08;2.00;97.00
12053;DHT22;6087;48.982;12.064;2023-02-15T12:50:36;2.00;99.90
12053;DHT22;6087;48.982;12.064;2023-02-15T12:53:07;1.90;99.20
12053;DHT22;6087;48.982;12.064;2023-02-15T12:55:35;2.00;99.90
12053;DHT22;6087;48.982;12.064;2023-02-15T12:58:06;2.00;99.90
12053;DHT22;6087;48.982;12.064;2023-02-15T13:00:34;2.00;99.60
12053;DHT22;6087;48.982;12.064;2023-02-15T13:03:02;1.90;99.00
12053;DHT22;6087;48.982;12.064;2023-02-15T13:05:33;2.00;99.80
12053;DHT22;6087;48.982;12.064;2023-02-15T13:08:02;2.00;99.50
12053;DHT22;6087;48.982;12.064;2023-02-15T13:10:34;2.00;99.90
12053;DHT22;6087;48.982;12.064;2023-02-15T13:13:09;2.10;99.40
12053;DHT22;6087;48.982;12.064;2023-02-15T13:15:40;2.10;99.90
12053;DHT22;6087;48.982;12.064;2023-02-15T13:18:13;2.10;99.20
12053;DHT22;6087;48.982;12.064;2023-02-15T13:20:42;1.90;99.90
12053;DHT22;6087;48.982;12.064;2023-02-15T13:23:24;1.90;99.90
12053;DHT22;6087;48.982;12.064;2023-02-15T13:25:54;2.00;99.90
12053;DHT22;6087;48.982;12.064;2023-02-15T13:28:24;1.90;99.90
12053;DHT22;6087;48.982;12.064;2023-02-15T13:30:54;2.00;99.90
12053;DHT22;6087;48.982;12.064;2023-02-15T13:33:27;1.90;99.90
12053;DHT22;6087;48.982;12.064;2023-02-15T13:36:02;1.80;99.90
12053;DHT22;6087;48.982;12.064;2023-02-15T13:38:46;1.80;99.90
12053;DHT22;6087;48.982;12.064;2023-02-15T13:41:19;1.70;99.90
12053;DHT22;6087;48.982;12.064;2023-02-15T13:43:54;1.70;99.90
12053;DHT22;6087;48.982;12.064;2023-02-15T13:49:31;1.90;99.90
12053;DHT22;6087;48.982;12.064;2023-02-15T13:52:11;2.00;99.90
12053;DHT22;6087;48.982;12.064;2023-02-15T13:54:53;2.00;99.90
12053;DHT22;6087;48.982;12.064;2023-02-15T13:57:39;2.00;99.90
12053;DHT22;6087;48.982;12.064;2023-02-15T14:00:20;2.00;99.90
12053;DHT22;6087;48.982;12.064;2023-02-15T14:03:11;2.10;99.90
12053;DHT22;6087;48.982;12.064;2023-02-15T14:05:57;2.20;99.90
12053;DHT22;6087;48.982;12.064;2023-02-15T14:08:39;2.20;99.90
12053;DHT22;6087;48.982;12.064;2023-02-15T14:11:16;2.20;99.90
12053;DHT22;6087;48.982;12.064;2023-02-15T14:16:48;2.20;99.90
12053;DHT22;6087;48.982;12.064;2023-02-15T14:19:25;2.20;99.90
12053;DHT22;6087;48.982;12.064;2023-02-15T14:21:59;2.30;99.90
12053;DHT22;6087;48.982;12.064;2023-02-15T14:24:33;2.30;99.50
12053;DHT22;6087;48.982;12.064;2023-02-15T14:27:15;2.30;99.30
12053;DHT22;6087;48.982;12.064;2023-02-15T14:29:49;2.30;99.20
12053;DHT22;6087;48.982;12.064;2023-02-15T14:32:23;2.20;99.40
12053;DHT22;6087;48.982;12.064;2023-02-15T14:34:55;2.20;99.70
12053;DHT22;6087;48.982;12.064;2023-02-15T14:37:32;2.20;99.90
12053;DHT22;6087;48.982;12.064;2023-02-15T14:40:05;2.30;99.90
12053;DHT22;6087;48.982;12.064;2023-02-15T14:42:56;2.30;99.20
12053;DHT22;6087;48.982;12.064;2023-02-15T14:45:29;2.30;99.60
12053;DHT22;6087;48.982;12.064;2023-02-15T14:48:04;2.30;99.20
12053;DHT22;6087;48.982;12.064;2023-02-15T14:50:47;2.30;99.00
12053;DHT22;6087;48.982;12.064;2023-02-15T14:53:38;2.30;98.90
12053;DHT22;6087;48.982;12.064;2023-02-15T14:56:26;2.30;99.00
12053;DHT22;6087;48.982;12.064;2023-02-15T14:59:14;2.30;99.40
12053;DHT22;6087;48.982;12.064;2023-02-15T15:01:51;2.30;99.20
12053;DHT22;6087;48.982;12.064;2023-02-15T15:04:25;2.30;98.60
12053;DHT22;6087;48.982;12.064;2023-02-15T15:07:02;2.30;98.60
12053;DHT22;6087;48.982;12.064;2023-02-15T15:09:34;2.30;98.90
12053;DHT22;6087;48.982;12.064;2023-02-15T15:12:38;2.30;99.20
12053;DHT22;6087;48.982;12.064;2023-02-15T15:15:06;2.30;98.90
12053;DHT22;6087;48.982;12.064;2023-02-15T15:17:56;2.30;99.00
12053;DHT22;6087;48.982;12.064;2023-02-15T15:20:42;2.30;99.30
12053;DHT22;6087;48.982;12.064;2023-02-15T15:26:27;2.30;99.40
12053;DHT22;6087;48.982;12.064;2023-02-15T15:28:57;2.30;98.90
12053;DHT22;6087;48.982;12.064;2023-02-15T15:37:27;2.30;98.60
12053;DHT22;6087;48.982;12.064;2023-02-15T15:40:38;2.30;99.90
12053;DHT22;6087;48.982;12.064;2023-02-15T15:43:42;2.20;99.70
12053;DHT22;6087;48.982;12.064;2023-02-15T15:46:31;2.20;99.50
12053;DHT22;6087;48.982;12.064;2023-02-15T15:49:01;2.20;99.90
12053;DHT22;6087;48.982;12.064;2023-02-15T15:51:31;2.10;99.20
12053;DHT22;6087;48.982;12.064;2023-02-15T15:54:00;2.10;99.90
12053;DHT22;6087;48.982;12.064;2023-02-15T15:56:31;2.10;99.80
12053;DHT22;6087;48.982;12.064;2023-02-15T15:59:04;2.00;98.90
12053;DHT22;6087;48.982;12.064;2023-02-15T16:01:35;1.90;99.90
12053;DHT22;6087;48.982;12.064;2023-02-15T16:04:04;1.80;99.90
12053;DHT22;6087;48.982;12.064;2023-02-15T16:06:34;1.80;99.90
12053;DHT22;6087;48.982;12.064;2023-02-15T16:09:12;1.80;99.90
12053;DHT22;6087;48.982;12.064;2023-02-15T16:11:40;1.90;99.90
12053;DHT22;6087;48.982;12.064;2023-02-15T16:14:14;1.90;99.90
12053;DHT22;6087;48.982;12.064;2023-02-15T16:16:48;2.00;99.90
12053;DHT22;6087;48.982;12.064;2023-02-15T16:19:20;1.90;99.90
12053;DHT22;6087;48.982;12.064;2023-02-15T16:21:49;1.90;99.90
12053;DHT22;6087;48.982;12.064;2023-02-15T16:24:26;2.00;99.90
12053;DHT22;6087;48.982;12.064;2023-02-15T16:27:14;2.00;99.90
12053;DHT22;6087;48.982;12.064;2023-02-15T16:29:44;2.00;99.90
12053;DHT22;6087;48.982;12.064;2023-02-15T16:32:18;2.00;99.90
12053;DHT22;6087;48.982;12.064;2023-02-15T16:34:53;2.00;99.90
12053;DHT22;6087;48.982;12.064;2023-02-15T16:37:22;2.00;99.90
12053;DHT22;6087;48.982;12.064;2023-02-15T16:39:52;2.00;99.90
12053;DHT22;6087;48.982;12.064;2023-02-15T16:42:19;2.00;99.90
12053;DHT22;6087;48.982;12.064;2023-02-15T16:44:51;2.10;99.90